Time;durP1;ratioP1;P1;durP2;ratioP2;P2;SDS_P1;SDS_P2;PMS_P1;PMS_P2;Temp;Humidity;BMP_temperature;BMP_pressure;BME280_temperature;BME280_humidity;BME280_pressure;Samples;Min_cycle;Max_cycle;Signal;HPM_P1;HPM_P2
2023/05/30 00:01:43;;;;;;;10.13;1.77;;;11.80;76.60;;;;;;4992743;28;20034;-77
2023/05/30 00:04:09;;;;;;;13.17;1.93;;;11.80;76.90;;;;;;4976684;28;20054;-76
2023/05/30 00:06:35;;;;;;;10.73;2.07;;;11.70;77.00;;;;;;4992715;28;20117;-77
2023/05/30 00:09:01;;;;;;;13.13;2.40;;;11.70;77.10;;;;;;4976392;28;20446;-76
2023/05/30 00:11:28;;;;;;;12.37;1.80;;;11.70;77.00;;;;;;5009419;28;20499;-76
2023/05/30 00:13:54;;;;;;;14.73;2.43;;;11.60;77.70;;;;;;5008937;28;20471;-77
2023/05/30 00:16:20;;;;;;;17.60;2.90;;;11.60;77.70;;;;;;4993840;28;20058;-81
2023/05/30 00:18:52;;;;;;;11.37;2.43;;;11.60;78.00;;;;;;4993813;28;20030;-81
2023/05/30 00:21:18;;;;;;;10.40;1.67;;;11.50;77.40;;;;;;4993613;28;20026;-81
2023/05/30 00:23:45;;;;;;;12.73;2.93;;;11.50;77.40;;;;;;4992289;28;20081;-81
2023/05/30 00:26:11;;;;;;;9.73;2.20;;;11.50;77.60;;;;;;4992779;28;20080;-81
2023/05/30 00:28:37;;;;;;;13.27;2.47;;;11.50;77.60;;;;;;4993672;28;20039;-76
2023/05/30 00:31:05;;;;;;;13.37;2.87;;;11.40;77.60;;;;;;4993608;28;20105;-76
2023/05/30 00:33:31;;;;;;;12.13;2.30;;;11.50;78.30;;;;;;4992581;28;20027;-76
2023/05/30 00:35:56;;;;;;;15.33;2.17;;;11.40;78.60;;;;;;4993814;28;20042;-76
2023/05/30 00:38:22;;;;;;;10.63;2.40;;;11.40;78.80;;;;;;4976341;28;20387;-77
2023/05/30 00:40:47;;;;;;;10.97;2.50;;;11.30;78.70;;;;;;4992104;28;20045;-76
2023/05/30 00:43:15;;;;;;;18.03;3.00;;;11.30;78.50;;;;;;4992660;28;20104;-77
2023/05/30 00:45:42;;;;;;;11.13;1.77;;;11.30;78.70;;;;;;5008454;28;20049;-76
2023/05/30 00:48:08;;;;;;;14.77;2.30;;;11.20;78.60;;;;;;4992345;28;20058;-77
2023/05/30 00:50:35;;;;;;;17.00;3.40;;;11.20;78.40;;;;;;4992233;28;20033;-77
2023/05/30 00:53:00;;;;;;;14.20;2.03;;;11.20;78.50;;;;;;4972774;28;20478;-77
2023/05/30 00:55:27;;;;;;;12.17;2.07;;;11.20;78.40;;;;;;4956896;28;20027;-77
2023/05/30 00:57:53;;;;;;;11.70;2.47;;;11.20;78.40;;;;;;4972754;28;20356;-76
2023/05/30 01:00:19;;;;;;;12.33;1.83;;;11.10;78.30;;;;;;4956810;28;20432;-76
2023/05/30 01:02:46;;;;;;;12.83;2.30;;;11.10;78.80;;;;;;4974187;28;20019;-77
2023/05/30 01:05:14;;;;;;;16.70;2.30;;;11.10;78.60;;;;;;4981075;28;20026;-77
2023/05/30 01:07:43;;;;;;;15.50;2.30;;;11.10;79.40;;;;;;4997360;28;20026;-77
2023/05/30 01:10:15;;;;;;;16.37;2.40;;;11.10;79.30;;;;;;4995845;28;20030;-77
2023/05/30 01:12:52;;;;;;;9.70;2.07;;;11.10;79.10;;;;;;4996225;28;20026;-77
2023/05/30 01:15:26;;;;;;;18.70;3.30;;;11.00;79.10;;;;;;4995689;28;20118;-76
2023/05/30 01:18:05;;;;;;;16.92;2.03;;;11.00;79.10;;;;;;4996902;28;20030;-77
2023/05/30 01:20:37;;;;;;;10.60;1.97;;;11.00;79.30;;;;;;4996451;28;20073;-77
2023/05/30 01:23:21;;;;;;;17.03;2.40;;;10.90;79.30;;;;;;4996878;28;20031;-77
2023/05/30 01:25:58;;;;;;;12.73;2.28;;;11.00;79.90;;;;;;4995379;28;20542;-81
2023/05/30 01:28:28;;;;;;;12.53;2.43;;;10.90;79.70;;;;;;4996610;28;20042;-81
2023/05/30 01:30:56;;;;;;;11.43;2.30;;;10.90;79.80;;;;;;4996618;28;20026;-81
2023/05/30 01:33:23;;;;;;;12.00;2.10;;;10.90;80.70;;;;;;4995076;28;20123;-81
2023/05/30 01:35:49;;;;;;;10.73;2.57;;;10.90;79.80;;;;;;4995365;28;20030;-81
2023/05/30 01:38:15;;;;;;;15.50;2.10;;;10.90;80.20;;;;;;4995370;28;20116;-82
2023/05/30 01:40:50;;;;;;;11.40;2.67;;;10.80;80.30;;;;;;4995240;28;20034;-80
2023/05/30 01:43:33;;;;;;;10.47;2.13;;;10.80;80.30;;;;;;4995120;28;20023;-81
2023/05/30 01:46:15;;;;;;;13.82;2.20;;;10.80;80.20;;;;;;4996111;28;20049;-81
2023/05/30 01:48:50;;;;;;;18.53;3.53;;;10.80;80.40;;;;;;4996463;28;20022;-81
2023/05/30 01:51:24;;;;;;;13.43;3.13;;;10.80;80.40;;;;;;4996871;28;20117;-81
2023/05/30 01:53:55;;;;;;;;;;;10.80;80.50;;;;;;4996666;28;20027;-76
2023/05/30 01:56:21;;;;;;;12.63;2.20;;;10.80;80.70;;;;;;5011186;28;19949;-77
2023/05/30 01:58:51;;;;;;;14.70;2.00;;;10.80;80.60;;;;;;4994372;28;20010;-77
2023/05/30 02:01:18;;;;;;;11.20;2.80;;;10.80;80.80;;;;;;4995957;28;20027;-77
2023/05/30 02:03:45;;;;;;;11.83;2.00;;;10.80;80.70;;;;;;4994969;28;20064;-76
2023/05/30 02:06:11;;;;;;;14.57;2.23;;;10.80;80.70;;;;;;4994883;28;20033;-78
2023/05/30 02:08:36;;;;;;;9.77;2.40;;;10.80;80.80;;;;;;4978477;28;20026;-77
2023/05/30 02:11:02;;;;;;;10.13;2.07;;;10.80;80.90;;;;;;4978995;28;20034;-77
2023/05/30 02:13:28;;;;;;;9.23;2.80;;;10.80;81.10;;;;;;4994778;28;20048;-77
2023/05/30 02:15:53;;;;;;;12.17;2.37;;;10.80;81.50;;;;;;4978220;28;20495;-78
2023/05/30 02:18:19;;;;;;;12.70;3.27;;;10.70;81.40;;;;;;4958868;28;20429;-77
2023/05/30 02:20:45;;;;;;;11.37;2.70;;;10.70;81.40;;;;;;4975185;28;20491;-77
2023/05/30 02:23:11;;;;;;;19.57;2.10;;;10.70;81.50;;;;;;4962017;28;20054;-77
2023/05/30 02:25:36;;;;;;;11.30;2.30;;;10.70;81.60;;;;;;4994342;28;20475;-77
2023/05/30 02:28:02;;;;;;;12.70;2.33;;;10.70;81.60;;;;;;4994217;28;20057;-77
2023/05/30 02:30:28;;;;;;;11.57;2.27;;;10.70;81.70;;;;;;4965239;28;20034;-77
2023/05/30 02:32:54;;;;;;;12.47;3.23;;;10.70;81.80;;;;;;4974849;28;20404;-77
2023/05/30 02:35:20;;;;;;;12.23;2.07;;;10.70;81.80;;;;;;4976029;28;20030;-77
2023/05/30 02:37:45;;;;;;;11.13;2.30;;;10.70;81.80;;;;;;4989381;28;20038;-77
2023/05/30 02:40:11;;;;;;;9.83;2.00;;;10.70;81.80;;;;;;4994160;28;20026;-77
2023/05/30 02:42:37;;;;;;;10.80;2.13;;;10.70;81.80;;;;;;4977948;28;20383;-77
2023/05/30 02:45:04;;;;;;;14.30;2.93;;;10.70;81.90;;;;;;4994282;28;20022;-77
2023/05/30 02:47:29;;;;;;;12.20;2.47;;;10.70;82.00;;;;;;4994806;28;20026;-77
2023/05/30 02:49:55;;;;;;;12.30;2.60;;;10.70;82.10;;;;;;4993960;28;20501;-77
2023/05/30 02:52:21;;;;;;;11.37;2.23;;;10.70;82.20;;;;;;5010479;28;20035;-77
2023/05/30 02:54:48;;;;;;;14.27;2.00;;;10.70;82.30;;;;;;5010364;28;20026;-77
2023/05/30 02:57:15;;;;;;;9.80;2.37;;;10.70;83.00;;;;;;4993657;28;20386;-77
2023/05/30 02:59:41;;;;;;;14.60;2.50;;;10.70;82.50;;;;;;4984042;28;20027;-77
2023/05/30 03:02:06;;;;;;;13.60;2.30;;;10.70;82.60;;;;;;4974503;28;20368;-77
2023/05/30 03:04:32;;;;;;;9.33;1.63;;;10.70;82.50;;;;;;4987089;28;20041;-77
2023/05/30 03:06:59;;;;;;;11.57;2.20;;;10.70;82.60;;;;;;4993389;28;20034;-77
2023/05/30 03:09:24;;;;;;;9.97;2.37;;;10.70;82.80;;;;;;4993613;28;20084;-77
2023/05/30 03:11:50;;;;;;;11.67;2.13;;;10.70;82.90;;;;;;4994866;28;20030;-77
2023/05/30 03:14:16;;;;;;;14.67;2.70;;;10.70;83.00;;;;;;4994819;28;20022;-77
2023/05/30 03:16:41;;;;;;;17.00;3.23;;;10.80;83.10;;;;;;4992713;28;20134;-77
2023/05/30 03:19:08;;;;;;;13.70;2.47;;;10.80;83.00;;;;;;4993106;28;20500;-77
2023/05/30 03:21:36;;;;;;;12.33;2.07;;;10.80;83.00;;;;;;4994608;28;20515;-76
2023/05/30 03:24:02;;;;;;;8.37;2.00;;;10.80;83.10;;;;;;4993371;28;20019;-77
2023/05/30 03:26:28;;;;;;;13.30;2.63;;;10.90;83.20;;;;;;4992618;28;20061;-77
2023/05/30 03:28:54;;;;;;;9.77;2.10;;;10.90;83.20;;;;;;4994820;28;20435;-77
2023/05/30 03:31:20;;;;;;;15.27;3.00;;;10.80;83.10;;;;;;4993175;28;20043;-77
2023/05/30 03:33:46;;;;;;;16.00;2.30;;;10.80;83.20;;;;;;4994395;28;20475;-77
2023/05/30 03:36:12;;;;;;;13.90;2.57;;;10.80;83.30;;;;;;4992911;28;20038;-77
2023/05/30 03:38:38;;;;;;;16.77;2.83;;;10.90;83.70;;;;;;4976971;28;20030;-77
2023/05/30 03:41:05;;;;;;;13.13;2.47;;;10.90;83.50;;;;;;4993114;28;20030;-76
2023/05/30 03:43:31;;;;;;;10.37;2.10;;;10.90;83.60;;;;;;4994174;28;20032;-77
2023/05/30 03:45:56;;;;;;;20.67;3.97;;;11.00;83.60;;;;;;4993997;28;20101;-77
2023/05/30 03:48:22;;;;;;;14.60;2.80;;;11.00;83.60;;;;;;4976501;28;20034;-77
2023/05/30 03:50:48;;;;;;;11.43;3.33;;;11.00;83.70;;;;;;5009098;28;20034;-76
2023/05/30 03:53:13;;;;;;;11.33;2.63;;;11.00;83.80;;;;;;4992921;28;20434;-77
2023/05/30 03:55:40;;;;;;;13.77;2.60;;;11.10;84.00;;;;;;5009465;28;20419;-77
2023/05/30 03:58:05;;;;;;;14.60;3.47;;;11.10;84.20;;;;;;5009519;28;20045;-77
2023/05/30 04:00:31;;;;;;;16.27;2.97;;;11.10;84.00;;;;;;4992867;28;20534;-77
2023/05/30 04:02:59;;;;;;;16.57;3.20;;;11.20;84.40;;;;;;4973285;28;20034;-77
2023/05/30 04:05:25;;;;;;;11.33;2.60;;;11.20;84.30;;;;;;4973253;28;20027;-77
2023/05/30 04:07:51;;;;;;;11.68;2.85;;;11.30;84.20;;;;;;4973274;28;20027;-76
2023/05/30 04:10:17;;;;;;;12.33;3.00;;;11.30;84.20;;;;;;4989496;28;20400;-76
2023/05/30 04:12:43;;;;;;;13.98;3.00;;;11.40;84.40;;;;;;4989467;28;20538;-76
2023/05/30 04:15:09;;;;;;;12.63;3.00;;;11.40;84.40;;;;;;4977449;28;20134;-76
2023/05/30 04:17:35;;;;;;;15.83;3.30;;;11.50;84.40;;;;;;5008648;28;20030;-76
2023/05/30 04:20:01;;;;;;;13.55;3.25;;;11.50;84.80;;;;;;5008900;28;20367;-76
2023/05/30 04:22:26;;;;;;;13.85;3.42;;;11.50;84.50;;;;;;4993887;28;20088;-76
2023/05/30 04:24:52;;;;;;;14.55;3.63;;;11.50;84.30;;;;;;4975862;28;20038;-77
2023/05/30 04:27:19;;;;;;;15.90;3.47;;;11.50;84.40;;;;;;4973009;28;20067;-76
2023/05/30 04:29:46;;;;;;;12.73;3.63;;;11.60;84.60;;;;;;4981544;28;20397;-77
2023/05/30 04:32:12;;;;;;;9.57;3.20;;;11.60;84.30;;;;;;4993710;28;20034;-75
2023/05/30 04:34:39;;;;;;;16.95;4.30;;;11.60;84.30;;;;;;5008601;28;20121;-75
2023/05/30 04:37:07;;;;;;;9.90;3.58;;;11.70;84.30;;;;;;4995588;28;20019;-76
2023/05/30 04:39:33;;;;;;;8.65;3.33;;;11.70;84.30;;;;;;4995879;28;20491;-76
2023/05/30 04:41:59;;;;;;;13.43;3.58;;;11.70;84.10;;;;;;5012720;28;20030;-76
2023/05/30 04:44:25;;;;;;;9.93;3.20;;;11.80;84.30;;;;;;5012555;28;20117;-76
2023/05/30 04:46:51;;;;;;;13.27;3.78;;;11.80;84.20;;;;;;4996248;28;20026;-76
2023/05/30 04:49:17;;;;;;;6.95;2.60;;;11.90;84.20;;;;;;4990202;28;20093;-76
2023/05/30 04:51:46;;;;;;;9.05;3.35;;;11.90;83.90;;;;;;5009666;28;20053;-75
2023/05/30 04:54:12;;;;;;;9.13;3.03;;;11.90;83.70;;;;;;5007327;28;20021;-76
2023/05/30 04:56:39;;;;;;;13.15;3.78;;;12.00;83.60;;;;;;4999383;28;20040;-75
2023/05/30 04:59:05;;;;;;;10.10;3.17;;;12.00;83.80;;;;;;4984822;28;20050;-75
2023/05/30 05:01:35;;;;;;;11.73;3.30;;;12.00;83.40;;;;;;4960988;28;20502;-76
2023/05/30 05:04:02;;;;;;;11.40;3.72;;;12.10;83.20;;;;;;4978014;28;20491;-75
2023/05/30 05:06:27;;;;;;;14.25;4.07;;;12.10;83.00;;;;;;4992872;28;20300;-76
2023/05/30 05:08:53;;;;;;;12.00;3.80;;;12.10;83.10;;;;;;4980625;28;20049;-77
2023/05/30 05:11:19;;;;;;;13.80;3.58;;;12.10;83.10;;;;;;4989863;28;20068;-75
2023/05/30 05:13:44;;;;;;;10.00;3.05;;;12.10;82.90;;;;;;4988233;28;20034;-76
2023/05/30 05:16:10;;;;;;;13.35;3.75;;;12.20;82.80;;;;;;5009868;28;20031;-76
2023/05/30 05:18:35;;;;;;;13.82;4.00;;;12.20;82.60;;;;;;4995343;28;20065;-76
2023/05/30 05:21:01;;;;;;;8.95;3.50;;;12.20;82.40;;;;;;4987014;28;20089;-75
2023/05/30 05:23:28;;;;;;;9.85;2.90;;;12.30;82.50;;;;;;4984498;28;20126;-80
2023/05/30 05:25:53;;;;;;;6.75;3.10;;;12.30;82.20;;;;;;4980465;28;20028;-79
2023/05/30 05:28:20;;;;;;;11.40;3.55;;;12.30;82.10;;;;;;5011340;28;20081;-75
2023/05/30 05:30:48;;;;;;;17.58;3.28;;;12.40;81.90;;;;;;4996203;28;20030;-75
2023/05/30 05:33:15;;;;;;;9.10;2.80;;;12.40;81.70;;;;;;4981973;28;20034;-75
2023/05/30 05:35:41;;;;;;;14.00;3.67;;;12.50;81.70;;;;;;4976853;28;20074;-75
2023/05/30 05:38:06;;;;;;;9.77;3.30;;;12.50;81.40;;;;;;4977030;28;20062;-76
2023/05/30 05:40:32;;;;;;;11.18;3.58;;;12.50;81.20;;;;;;4976904;28;20054;-73
2023/05/30 05:42:58;;;;;;;11.30;2.67;;;12.60;81.10;;;;;;5009237;28;20042;-74
2023/05/30 05:45:23;;;;;;;9.95;3.00;;;12.60;80.80;;;;;;4995123;28;20062;-75
2023/05/30 05:47:49;;;;;;;8.63;2.65;;;12.60;80.70;;;;;;4996159;28;20491;-75
2023/05/30 05:50:14;;;;;;;9.85;3.25;;;12.70;80.60;;;;;;4994927;28;20080;-75
2023/05/30 05:52:41;;;;;;;11.95;3.00;;;12.70;80.20;;;;;;4996305;28;20034;-74
2023/05/30 05:55:07;;;;;;;13.07;3.45;;;12.70;80.00;;;;;;5009312;28;20167;-75
2023/05/30 05:57:32;;;;;;;9.18;3.10;;;12.70;79.90;;;;;;4990029;28;20042;-75
2023/05/30 05:59:58;;;;;;;11.27;2.60;;;12.80;79.90;;;;;;4975697;28;20038;-74
2023/05/30 06:02:24;;;;;;;10.30;2.65;;;12.80;79.90;;;;;;4976606;28;20383;-76
2023/05/30 06:04:50;;;;;;;10.23;2.70;;;12.80;79.90;;;;;;4975835;28;20109;-73
2023/05/30 06:07:16;;;;;;;8.07;2.30;;;12.80;79.80;;;;;;4974516;28;20074;-74
2023/05/30 06:09:41;;;;;;;9.13;2.38;;;12.90;80.40;;;;;;4975693;28;20413;-75
2023/05/30 06:12:07;;;;;;;6.85;2.20;;;13.00;79.70;;;;;;4993696;28;20495;-76
2023/05/30 06:14:33;;;;;;;8.05;2.60;;;13.10;79.60;;;;;;4993548;28;20093;-74
2023/05/30 06:16:59;;;;;;;10.25;2.58;;;13.10;79.40;;;;;;4993735;28;20026;-74
2023/05/30 06:19:25;;;;;;;7.88;2.15;;;13.20;79.20;;;;;;4992426;28;20035;-75
2023/05/30 06:21:50;;;;;;;9.80;2.20;;;13.30;79.00;;;;;;4995377;28;20498;-76
2023/05/30 06:24:16;;;;;;;9.20;2.30;;;13.40;78.90;;;;;;4995475;28;20018;-73
2023/05/30 06:26:42;;;;;;;12.95;2.47;;;13.40;78.70;;;;;;4994399;28;20039;-75
2023/05/30 06:29:08;;;;;;;7.93;2.60;;;13.50;78.50;;;;;;4994325;28;20054;-74
2023/05/30 06:31:34;;;;;;;11.75;3.22;;;13.60;78.30;;;;;;4994326;28;20077;-74
2023/05/30 06:34:00;;;;;;;7.53;1.77;;;13.60;77.90;;;;;;4995776;28;20026;-76
2023/05/30 06:36:25;;;;;;;10.32;2.03;;;13.70;77.80;;;;;;4994437;28;20045;-76
2023/05/30 06:38:51;;;;;;;7.72;2.00;;;13.80;77.60;;;;;;4993769;28;20034;-75
2023/05/30 06:41:17;;;;;;;8.15;2.30;;;13.80;77.30;;;;;;4993681;28;20066;-75
2023/05/30 06:43:43;;;;;;;7.32;2.03;;;13.90;77.10;;;;;;4995204;28;20023;-75
2023/05/30 06:46:08;;;;;;;6.68;2.00;;;14.00;76.90;;;;;;4995445;28;20053;-74
2023/05/30 06:48:34;;;;;;;13.32;2.45;;;14.10;76.60;;;;;;4994263;28;20510;-75
2023/05/30 06:51:00;;;;;;;11.18;2.08;;;14.10;76.30;;;;;;4994984;28;20041;-75
2023/05/30 06:53:25;;;;;;;7.65;2.50;;;14.20;76.10;;;;;;4993365;28;20030;-76
2023/05/30 06:55:51;;;;;;;10.25;2.35;;;14.30;75.90;;;;;;4971107;28;20141;-75
2023/05/30 06:58:18;;;;;;;6.97;1.90;;;14.40;75.70;;;;;;5009301;28;20034;-75
2023/05/30 07:00:44;;;;;;;5.78;1.33;;;14.50;75.40;;;;;;4993957;28;20061;-73
2023/05/30 07:03:09;;;;;;;7.18;2.00;;;14.50;75.10;;;;;;4994849;28;20085;-75
2023/05/30 07:05:36;;;;;;;8.32;2.50;;;14.60;74.80;;;;;;4993567;28;20491;-76
2023/05/30 07:08:01;;;;;;;9.70;2.22;;;14.60;74.50;;;;;;4994827;28;20022;-75
2023/05/30 07:10:27;;;;;;;9.48;2.25;;;14.70;74.20;;;;;;4994533;28;20118;-75
2023/05/30 07:12:53;;;;;;;8.05;1.98;;;14.80;74.00;;;;;;4993169;28;20026;-75
2023/05/30 07:15:18;;;;;;;10.05;1.95;;;14.80;73.60;;;;;;4993033;28;20035;-76
2023/05/30 07:17:44;;;;;;;7.10;2.40;;;14.90;73.40;;;;;;4994568;28;20098;-76
2023/05/30 07:20:10;;;;;;;10.10;2.30;;;14.90;73.20;;;;;;4994285;28;20026;-76
2023/05/30 07:22:37;;;;;;;6.85;2.10;;;15.00;73.30;;;;;;4994431;28;20109;-75
2023/05/30 07:25:05;;;;;;;11.73;2.60;;;15.00;73.30;;;;;;4994048;28;20030;-75
2023/05/30 07:27:31;;;;;;;5.82;1.85;;;15.00;73.30;;;;;;4993062;28;20111;-76
2023/05/30 07:29:56;;;;;;;7.28;2.70;;;15.00;73.10;;;;;;4994607;28;20038;-76
2023/05/30 07:32:22;;;;;;;8.73;2.83;;;15.10;73.70;;;;;;4992974;28;20411;-76
2023/05/30 07:34:48;;;;;;;7.88;2.72;;;15.20;73.00;;;;;;4994187;28;20034;-75
2023/05/30 07:37:13;;;;;;;11.55;2.70;;;15.20;72.60;;;;;;4976830;28;20022;-74
2023/05/30 07:39:40;;;;;;;8.70;1.98;;;15.30;72.50;;;;;;4992875;28;20026;-74
2023/05/30 07:42:07;;;;;;;8.02;1.92;;;15.40;72.30;;;;;;4992679;28;20391;-76
2023/05/30 07:44:32;;;;;;;9.23;2.25;;;15.50;71.90;;;;;;4993115;28;20483;-75
2023/05/30 07:46:58;;;;;;;7.65;2.08;;;15.50;71.50;;;;;;4994363;28;20022;-76
2023/05/30 07:49:24;;;;;;;12.00;2.67;;;15.60;71.20;;;;;;4993128;28;20065;-75
2023/05/30 07:51:49;;;;;;;9.73;1.85;;;15.70;70.90;;;;;;4994345;28;20026;-76
2023/05/30 07:54:15;;;;;;;7.57;2.15;;;15.70;70.60;;;;;;4993615;28;20026;-81
2023/05/30 07:56:41;;;;;;;8.45;1.92;;;15.70;70.40;;;;;;4993823;28;20034;-75
2023/05/30 07:59:06;;;;;;;6.18;2.17;;;15.80;70.20;;;;;;5009418;28;20369;-75
2023/05/30 08:01:32;;;;;;;11.77;2.58;;;15.80;69.90;;;;;;4992195;28;20502;-74
2023/05/30 08:03:59;;;;;;;8.60;2.35;;;15.80;69.60;;;;;;5008770;28;20117;-75
2023/05/30 08:06:25;;;;;;;7.47;2.10;;;15.80;69.50;;;;;;4992764;28;20034;-74
2023/05/30 08:08:51;;;;;;;9.63;3.35;;;15.80;69.30;;;;;;4993911;28;20030;-75
2023/05/30 08:11:17;;;;;;;7.75;1.95;;;15.90;69.10;;;;;;4976168;28;20041;-76
2023/05/30 08:13:47;;;;;;;8.43;1.80;;;15.90;69.00;;;;;;4993647;28;20030;-75
2023/05/30 08:16:14;;;;;;;7.35;2.13;;;15.90;69.00;;;;;;4992649;28;20030;-76
2023/05/30 08:18:41;;;;;;;10.77;2.60;;;16.00;68.90;;;;;;5009109;28;20033;-76
2023/05/30 08:21:07;;;;;;;13.32;1.88;;;15.90;68.90;;;;;;4992568;28;20476;-75
2023/05/30 08:23:33;;;;;;;11.13;2.30;;;16.00;69.10;;;;;;4993768;28;20105;-76
2023/05/30 08:25:59;;;;;;;8.63;3.08;;;15.90;69.10;;;;;;4994034;28;20113;-75
2023/05/30 08:28:25;;;;;;;5.72;1.88;;;15.90;69.10;;;;;;4992170;28;20050;-76
2023/05/30 08:30:51;;;;;;;5.68;2.40;;;16.00;69.10;;;;;;4993663;28;20045;-76
2023/05/30 08:33:17;;;;;;;9.30;2.50;;;16.00;69.10;;;;;;4992332;28;20035;-76
2023/05/30 08:35:43;;;;;;;6.65;1.98;;;16.10;69.20;;;;;;4992502;28;20026;-76
2023/05/30 08:38:08;;;;;;;9.07;2.50;;;16.10;69.30;;;;;;4993790;28;20022;-76
2023/05/30 08:40:35;;;;;;;9.93;2.45;;;16.20;69.30;;;;;;4992516;28;20025;-76
2023/05/30 08:43:01;;;;;;;7.95;2.55;;;16.20;69.20;;;;;;4992389;28;20062;-75
2023/05/30 08:45:27;;;;;;;7.65;2.10;;;16.20;69.20;;;;;;4993471;28;20062;-75
2023/05/30 08:47:56;;;;;;;7.45;2.97;;;16.30;69.10;;;;;;4992724;28;20034;-75
2023/05/30 08:50:24;;;;;;;8.20;2.20;;;16.40;69.10;;;;;;4993651;28;20054;-76
2023/05/30 08:52:56;;;;;;;9.13;2.55;;;16.40;68.90;;;;;;4991965;28;20033;-76
2023/05/30 08:55:30;;;;;;;9.73;2.38;;;16.50;68.90;;;;;;4992206;28;20037;-76
2023/05/30 08:58:09;;;;;;;5.40;1.85;;;16.60;68.80;;;;;;4992008;28;20023;-75
2023/05/30 09:00:35;;;;;;;12.57;2.50;;;16.60;68.60;;;;;;4993631;28;20027;-75
2023/05/30 09:03:05;;;;;;;10.60;2.50;;;16.70;68.30;;;;;;4993394;28;20030;-76
2023/05/30 09:05:33;;;;;;;11.05;2.30;;;16.70;67.90;;;;;;4993506;28;20026;-76
2023/05/30 09:08:01;;;;;;;8.23;2.03;;;16.80;67.80;;;;;;4992024;28;20036;-76
2023/05/30 09:10:28;;;;;;;11.05;2.08;;;16.80;67.80;;;;;;4993590;28;20102;-76
2023/05/30 09:12:56;;;;;;;10.73;2.72;;;16.80;67.70;;;;;;5008419;28;20027;-76
2023/05/30 09:15:21;;;;;;;10.18;3.15;;;16.90;67.40;;;;;;4975876;28;20027;-75
2023/05/30 09:17:47;;;;;;;9.98;2.28;;;16.90;67.00;;;;;;4992061;28;20038;-76
2023/05/30 09:20:17;;;;;;;7.55;1.60;;;17.00;66.90;;;;;;4993469;28;20062;-76
2023/05/30 09:22:46;;;;;;;8.57;2.35;;;17.00;66.70;;;;;;4993232;28;20138;-76
2023/05/30 09:25:16;;;;;;;7.97;2.30;;;17.00;66.60;;;;;;4996273;28;20037;-77
2023/05/30 09:27:47;;;;;;;7.82;2.30;;;17.10;66.30;;;;;;4996609;28;20054;-76
2023/05/30 09:30:14;;;;;;;12.02;2.83;;;17.10;66.20;;;;;;4996494;28;20201;-76
2023/05/30 09:32:39;;;;;;;6.38;1.88;;;17.10;66.00;;;;;;4995061;28;20034;-76
2023/05/30 09:35:25;;;;;;;6.82;2.38;;;17.20;66.10;;;;;;4996550;28;20376;-75
2023/05/30 09:37:51;;;;;;;7.43;2.42;;;17.30;66.10;;;;;;4993560;28;20391;-76
2023/05/30 09:40:17;;;;;;;8.55;1.90;;;17.30;66.10;;;;;;4996368;28;20026;-75
2023/05/30 09:42:51;;;;;;;8.13;2.13;;;17.40;65.90;;;;;;4978922;28;20034;-74
2023/05/30 09:45:22;;;;;;;7.03;2.40;;;17.40;65.50;;;;;;5011248;28;20026;-75
2023/05/30 09:47:50;;;;;;;6.68;2.17;;;17.50;65.20;;;;;;4996007;28;20052;-75
2023/05/30 09:50:18;;;;;;;7.20;2.13;;;17.60;64.90;;;;;;4994877;28;20030;-81
2023/05/30 09:52:45;;;;;;;6.82;1.58;;;17.60;64.50;;;;;;4996115;28;20026;-82
2023/05/30 09:55:14;;;;;;;7.13;2.35;;;17.70;64.30;;;;;;4995970;28;20534;-81
2023/05/30 09:57:45;;;;;;;6.13;1.60;;;17.80;64.10;;;;;;5011072;28;20027;-82
2023/05/30 10:00:13;;;;;;;9.27;1.90;;;17.80;63.90;;;;;;4995838;28;20030;-82
2023/05/30 10:02:40;;;;;;;9.75;2.03;;;17.90;63.70;;;;;;4995899;28;20038;-82
2023/05/30 10:05:20;;;;;;;10.70;2.10;;;18.00;63.50;;;;;;4995927;28;20081;-81
2023/05/30 10:07:48;;;;;;;6.55;1.90;;;18.10;63.50;;;;;;4994359;28;20538;-82
2023/05/30 10:10:15;;;;;;;6.03;2.05;;;18.10;63.30;;;;;;4996276;28;20030;-79
2023/05/30 10:12:49;;;;;;;8.32;2.22;;;18.20;63.20;;;;;;4995651;28;20034;-81
2023/05/30 10:15:16;;;;;;;7.93;2.47;;;18.20;62.80;;;;;;4996497;28;20444;-81
2023/05/30 10:18:05;;;;;;;7.63;1.88;;;18.30;62.60;;;;;;4994594;28;20074;-82
2023/05/30 10:20:31;;;;;;;6.03;1.75;;;18.40;62.40;;;;;;4976391;28;20027;-82
2023/05/30 10:22:58;;;;;;;8.07;2.05;;;18.40;62.30;;;;;;4976509;28;20066;-82
2023/05/30 10:25:27;;;;;;;8.13;2.38;;;18.50;62.40;;;;;;4959316;28;20023;-84
2023/05/30 10:27:55;;;;;;;7.82;1.55;;;18.60;62.40;;;;;;4985861;28;20556;-82
2023/05/30 10:30:26;;;;;;;8.75;2.25;;;18.60;62.20;;;;;;4995796;28;20034;-82
2023/05/30 10:33:13;;;;;;;6.20;2.20;;;18.70;61.80;;;;;;4995658;28;20414;-82
2023/05/30 10:35:39;;;;;;;7.60;2.45;;;18.90;61.60;;;;;;4993903;28;20109;-83
2023/05/30 10:38:08;;;;;;;6.82;2.17;;;19.00;61.70;;;;;;5010890;28;20105;-81
2023/05/30 10:41:00;;;;;;;9.13;2.25;;;19.20;61.60;;;;;;4994234;28;20033;-82
2023/05/30 10:43:53;;;;;;;8.48;1.98;;;19.40;61.50;;;;;;4995562;28;20069;-83
2023/05/30 10:46:24;;;;;;;8.93;1.80;;;19.60;61.20;;;;;;4995547;28;20030;-80
2023/05/30 10:49:04;;;;;;;6.97;2.22;;;19.80;60.80;;;;;;4993569;28;20026;-83
2023/05/30 10:51:30;;;;;;;6.53;1.90;;;20.00;60.00;;;;;;4995161;28;20053;-83
2023/05/30 10:53:59;;;;;;;7.65;2.08;;;20.20;60.00;;;;;;4995103;28;20022;-81
2023/05/30 10:56:43;;;;;;;6.22;1.90;;;20.40;59.50;;;;;;4995120;28;20093;-83
2023/05/30 10:59:18;;;;;;;;;;;20.60;58.40;;;;;;4978390;28;20039;-81
2023/05/30 11:01:58;;;;;;;6.47;1.60;;;20.70;58.50;;;;;;5009811;28;20012;-86
2023/05/30 11:04:34;;;;;;;10.32;1.83;;;20.90;58.30;;;;;;4995175;28;20089;-80
2023/05/30 11:07:02;;;;;;;5.78;1.95;;;21.10;57.90;;;;;;4994916;28;20486;-82
2023/05/30 11:09:28;;;;;;;6.50;1.75;;;21.30;57.20;;;;;;4995114;28;20109;-82
2023/05/30 11:11:53;;;;;;;8.05;2.20;;;21.50;56.60;;;;;;4995152;28;20175;-79
2023/05/30 11:14:25;;;;;;;6.85;2.15;;;21.60;56.10;;;;;;4993599;28;20034;-83
2023/05/30 11:17:04;;;;;;;8.05;1.92;;;21.90;55.50;;;;;;4994841;28;20022;-84
2023/05/30 11:19:43;;;;;;;7.65;2.30;;;22.00;55.20;;;;;;4994575;28;20029;-84
2023/05/30 11:22:16;;;;;;;7.38;1.73;;;22.30;55.10;;;;;;4994861;28;20104;-82
2023/05/30 11:24:43;;;;;;;9.70;2.50;;;22.50;54.60;;;;;;4994621;28;20178;-84
2023/05/30 11:27:12;;;;;;;4.15;1.65;;;22.70;54.50;;;;;;5009730;28;20026;-84
2023/05/30 11:29:43;;;;;;;8.30;1.77;;;22.90;54.10;;;;;;4993759;28;20041;-85
2023/05/30 11:32:11;;;;;;;7.93;2.08;;;23.10;53.80;;;;;;4993223;28;20505;-84
2023/05/30 11:34:37;;;;;;;7.35;1.98;;;23.40;53.50;;;;;;4994762;28;20034;-83
2023/05/30 11:37:04;;;;;;;6.05;1.50;;;23.50;53.10;;;;;;4994487;28;20033;-84
2023/05/30 11:39:34;;;;;;;4.10;1.42;;;23.60;52.50;;;;;;5009534;28;20042;-82
2023/05/30 11:42:02;;;;;;;4.85;1.65;;;23.80;52.10;;;;;;4994864;28;20479;-83
2023/05/30 11:44:31;;;;;;;8.48;1.98;;;24.00;51.90;;;;;;4994436;28;20592;-84
2023/05/30 11:47:02;;;;;;;5.45;1.38;;;24.20;51.70;;;;;;4993714;28;20034;-81
2023/05/30 11:49:28;;;;;;;6.97;1.73;;;24.40;51.30;;;;;;4994444;28;20057;-84
2023/05/30 11:51:54;;;;;;;6.65;1.45;;;24.50;51.00;;;;;;4994309;28;20038;-86
2023/05/30 11:54:22;;;;;;;6.32;1.60;;;24.70;50.70;;;;;;4994375;28;20041;-76
2023/05/30 11:56:50;;;;;;;9.27;1.90;;;24.80;50.00;;;;;;4994027;28;20085;-75
2023/05/30 11:59:18;;;;;;;4.70;1.40;;;25.00;49.50;;;;;;4994189;28;20064;-76
2023/05/30 12:01:56;;;;;;;5.70;1.42;;;25.20;48.90;;;;;;4994158;28;20027;-77
2023/05/30 12:04:32;;;;;;;8.13;1.92;;;25.40;48.20;;;;;;4994030;28;20081;-77
2023/05/30 12:07:07;;;;;;;6.38;1.70;;;25.60;47.90;;;;;;4993915;28;20058;-76
2023/05/30 12:09:41;;;;;;;5.05;1.40;;;25.80;47.10;;;;;;4976666;28;20080;-76
2023/05/30 12:12:08;;;;;;;6.32;1.20;;;25.90;46.70;;;;;;4992718;28;20045;-77
2023/05/30 12:15:02;;;;;;;6.32;1.42;;;26.10;46.50;;;;;;4992776;28;20101;-75
2023/05/30 12:17:28;;;;;;;6.10;1.58;;;26.40;45.60;;;;;;4992203;28;20089;-76
2023/05/30 12:19:56;;;;;;;5.25;1.70;;;26.60;46.00;;;;;;4994227;28;20069;-77
2023/05/30 12:22:23;;;;;;;5.32;1.70;;;26.70;45.60;;;;;;4992610;28;20471;-76
2023/05/30 12:24:49;;;;;;;4.45;1.23;;;26.90;45.20;;;;;;4993856;28;20057;-76
2023/05/30 12:27:25;;;;;;;6.60;1.50;;;27.10;44.80;;;;;;4993802;28;20047;-77
2023/05/30 12:29:52;;;;;;;7.32;1.65;;;27.30;44.10;;;;;;4992116;28;20386;-77
2023/05/30 12:32:25;;;;;;;8.63;1.83;;;27.40;44.40;;;;;;4993720;28;20521;-77
2023/05/30 12:34:52;;;;;;;;;;;27.60;44.50;;;;;;4992822;28;20387;-76
2023/05/30 12:37:18;;;;;;;4.07;1.08;;;27.60;44.70;;;;;;5008742;28;19909;-84
2023/05/30 12:39:52;;;;;;;4.05;1.40;;;27.70;44.90;;;;;;4993854;28;20073;-82
2023/05/30 12:42:23;;;;;;;4.05;1.58;;;27.90;44.30;;;;;;4993858;28;20035;-84
2023/05/30 12:44:57;;;;;;;6.43;1.15;;;28.00;43.90;;;;;;5008680;28;20042;-83
2023/05/30 12:47:24;;;;;;;3.78;1.25;;;28.20;43.80;;;;;;4993826;28;20030;-82